sensor_id;sensor_type;location;lat;lon;timestamp;P1;durP1;ratioP1;P2;durP2;ratioP2
12005;SDS011;6062;47.294;12.182;2023-02-28T00:00:33;1.83;;;1.63;;
12005;SDS011;6062;47.294;12.182;2023-02-28T00:03:01;2.93;;;2.00;;
12005;SDS011;6062;47.294;12.182;2023-02-28T00:05:27;2.33;;;1.70;;
12005;SDS011;6062;47.294;12.182;2023-02-28T00:07:54;1.90;;;1.70;;
12005;SDS011;6062;47.294;12.182;2023-02-28T00:10:31;1.60;;;1.50;;
12005;SDS011;6062;47.294;12.182;2023-02-28T00:13:01;2.20;;;1.80;;
12005;SDS011;6062;47.294;12.182;2023-02-28T00:15:30;1.70;;;1.60;;
12005;SDS011;6062;47.294;12.182;2023-02-28T00:17:56;2.53;;;1.90;;
12005;SDS011;6062;47.294;12.182;2023-02-28T00:20:22;2.30;;;1.80;;
12005;SDS011;6062;47.294;12.182;2023-02-28T00:22:50;2.27;;;1.77;;
12005;SDS011;6062;47.294;12.182;2023-02-28T00:25:19;2.97;;;1.80;;
12005;SDS011;6062;47.294;12.182;2023-02-28T00:27:48;3.17;;;1.90;;
12005;SDS011;6062;47.294;12.182;2023-02-28T00:30:15;3.10;;;1.73;;
12005;SDS011;6062;47.294;12.182;2023-02-28T00:32:43;2.57;;;2.10;;
12005;SDS011;6062;47.294;12.182;2023-02-28T00:35:09;2.10;;;1.90;;
12005;SDS011;6062;47.294;12.182;2023-02-28T00:37:37;4.23;;;2.07;;
12005;SDS011;6062;47.294;12.182;2023-02-28T00:40:03;2.37;;;1.97;;
12005;SDS011;6062;47.294;12.182;2023-02-28T00:42:31;2.30;;;1.77;;
12005;SDS011;6062;47.294;12.182;2023-02-28T00:44:58;1.93;;;1.73;;
12005;SDS011;6062;47.294;12.182;2023-02-28T00:47:25;2.57;;;1.80;;
12005;SDS011;6062;47.294;12.182;2023-02-28T00:49:51;2.60;;;2.00;;
12005;SDS011;6062;47.294;12.182;2023-02-28T00:52:16;2.10;;;1.70;;
12005;SDS011;6062;47.294;12.182;2023-02-28T00:54:42;2.67;;;1.90;;
12005;SDS011;6062;47.294;12.182;2023-02-28T00:57:08;2.87;;;1.90;;
12005;SDS011;6062;47.294;12.182;2023-02-28T00:59:33;2.20;;;1.70;;
12005;SDS011;6062;47.294;12.182;2023-02-28T01:02:00;2.20;;;1.70;;
12005;SDS011;6062;47.294;12.182;2023-02-28T01:04:25;2.13;;;1.90;;
12005;SDS011;6062;47.294;12.182;2023-02-28T01:06:51;2.80;;;2.00;;
12005;SDS011;6062;47.294;12.182;2023-02-28T01:09:17;2.63;;;1.80;;
12005;SDS011;6062;47.294;12.182;2023-02-28T01:11:44;2.13;;;1.83;;
12005;SDS011;6062;47.294;12.182;2023-02-28T01:14:14;2.23;;;1.70;;
12005;SDS011;6062;47.294;12.182;2023-02-28T01:16:42;1.93;;;1.70;;
12005;SDS011;6062;47.294;12.182;2023-02-28T01:19:08;1.97;;;1.60;;
12005;SDS011;6062;47.294;12.182;2023-02-28T01:21:34;1.97;;;1.77;;
12005;SDS011;6062;47.294;12.182;2023-02-28T01:24:00;1.60;;;1.43;;
12005;SDS011;6062;47.294;12.182;2023-02-28T01:26:27;1.40;;;1.30;;
12005;SDS011;6062;47.294;12.182;2023-02-28T01:28:53;2.37;;;1.80;;
12005;SDS011;6062;47.294;12.182;2023-02-28T01:31:19;2.30;;;1.90;;
12005;SDS011;6062;47.294;12.182;2023-02-28T01:33:46;2.10;;;1.67;;
12005;SDS011;6062;47.294;12.182;2023-02-28T01:36:20;2.20;;;2.00;;
12005;SDS011;6062;47.294;12.182;2023-02-28T01:38:49;1.90;;;1.70;;
12005;SDS011;6062;47.294;12.182;2023-02-28T01:41:20;1.60;;;1.50;;
12005;SDS011;6062;47.294;12.182;2023-02-28T01:43:57;1.90;;;1.70;;
12005;SDS011;6062;47.294;12.182;2023-02-28T01:46:28;2.23;;;1.77;;
12005;SDS011;6062;47.294;12.182;2023-02-28T01:48:58;2.43;;;2.00;;
12005;SDS011;6062;47.294;12.182;2023-02-28T01:51:37;2.10;;;1.80;;
12005;SDS011;6062;47.294;12.182;2023-02-28T01:54:27;2.43;;;1.80;;
12005;SDS011;6062;47.294;12.182;2023-02-28T01:57:03;2.20;;;1.83;;
12005;SDS011;6062;47.294;12.182;2023-02-28T01:59:35;2.70;;;1.87;;
12005;SDS011;6062;47.294;12.182;2023-02-28T02:02:11;2.20;;;2.00;;
12005;SDS011;6062;47.294;12.182;2023-02-28T02:04:39;2.00;;;1.77;;
12005;SDS011;6062;47.294;12.182;2023-02-28T02:07:15;1.97;;;1.77;;
12005;SDS011;6062;47.294;12.182;2023-02-28T02:09:41;2.53;;;1.90;;
12005;SDS011;6062;47.294;12.182;2023-02-28T02:12:14;2.47;;;1.90;;
12005;SDS011;6062;47.294;12.182;2023-02-28T02:17:50;2.40;;;1.80;;
12005;SDS011;6062;47.294;12.182;2023-02-28T02:20:37;2.40;;;1.80;;
12005;SDS011;6062;47.294;12.182;2023-02-28T02:36:24;115.83;;;5.90;;
12005;SDS011;6062;47.294;12.182;2023-02-28T02:39:11;36.27;;;3.80;;
12005;SDS011;6062;47.294;12.182;2023-02-28T02:41:52;1.90;;;1.70;;
12005;SDS011;6062;47.294;12.182;2023-02-28T02:44:24;1.70;;;1.60;;
12005;SDS011;6062;47.294;12.182;2023-02-28T02:47:13;2.00;;;1.60;;
12005;SDS011;6062;47.294;12.182;2023-02-28T02:49:44;3.00;;;1.90;;
12005;SDS011;6062;47.294;12.182;2023-02-28T02:52:17;124.50;;;7.30;;
12005;SDS011;6062;47.294;12.182;2023-02-28T02:54:50;2.40;;;1.60;;
12005;SDS011;6062;47.294;12.182;2023-02-28T02:57:32;2.07;;;1.60;;
12005;SDS011;6062;47.294;12.182;2023-02-28T03:00:05;1.70;;;1.50;;
12005;SDS011;6062;47.294;12.182;2023-02-28T03:02:34;2.93;;;1.80;;
12005;SDS011;6062;47.294;12.182;2023-02-28T03:05:04;2.17;;;1.63;;
12005;SDS011;6062;47.294;12.182;2023-02-28T03:07:42;2.07;;;1.87;;
12005;SDS011;6062;47.294;12.182;2023-02-28T03:10:27;2.87;;;1.83;;
12005;SDS011;6062;47.294;12.182;2023-02-28T03:16:29;3.27;;;1.80;;
12005;SDS011;6062;47.294;12.182;2023-02-28T03:19:29;1.97;;;1.77;;
12005;SDS011;6062;47.294;12.182;2023-02-28T03:25:22;2.20;;;1.60;;
12005;SDS011;6062;47.294;12.182;2023-02-28T03:28:16;2.20;;;1.80;;
12005;SDS011;6062;47.294;12.182;2023-02-28T03:33:50;1.53;;;1.43;;
12005;SDS011;6062;47.294;12.182;2023-02-28T03:36:42;2.53;;;1.60;;
12005;SDS011;6062;47.294;12.182;2023-02-28T03:39:24;2.20;;;1.60;;
12005;SDS011;6062;47.294;12.182;2023-02-28T03:42:09;2.00;;;1.50;;
12005;SDS011;6062;47.294;12.182;2023-02-28T03:44:49;1.40;;;1.30;;
12005;SDS011;6062;47.294;12.182;2023-02-28T03:47:22;1.83;;;1.37;;
12005;SDS011;6062;47.294;12.182;2023-02-28T03:49:56;1.60;;;1.40;;
12005;SDS011;6062;47.294;12.182;2023-02-28T03:52:34;1.30;;;1.20;;
12005;SDS011;6062;47.294;12.182;2023-02-28T03:55:08;87.47;;;5.20;;
12005;SDS011;6062;47.294;12.182;2023-02-28T04:00:37;2.33;;;1.60;;
12005;SDS011;6062;47.294;12.182;2023-02-28T04:03:10;1.80;;;1.50;;
12005;SDS011;6062;47.294;12.182;2023-02-28T04:05:50;1.60;;;1.40;;
12005;SDS011;6062;47.294;12.182;2023-02-28T04:08:21;1.50;;;1.20;;
12005;SDS011;6062;47.294;12.182;2023-02-28T04:10:56;1.33;;;1.23;;
12005;SDS011;6062;47.294;12.182;2023-02-28T04:13:32;1.50;;;1.10;;
12005;SDS011;6062;47.294;12.182;2023-02-28T04:15:57;1.50;;;1.30;;
12005;SDS011;6062;47.294;12.182;2023-02-28T04:18:23;1.47;;;1.37;;
12005;SDS011;6062;47.294;12.182;2023-02-28T04:20:49;1.50;;;1.30;;
12005;SDS011;6062;47.294;12.182;2023-02-28T04:23:14;1.30;;;1.20;;
12005;SDS011;6062;47.294;12.182;2023-02-28T04:25:40;1.10;;;1.00;;
12005;SDS011;6062;47.294;12.182;2023-02-28T04:28:06;1.43;;;1.23;;
12005;SDS011;6062;47.294;12.182;2023-02-28T04:30:32;1.67;;;1.30;;
12005;SDS011;6062;47.294;12.182;2023-02-28T04:32:58;1.33;;;1.03;;
12005;SDS011;6062;47.294;12.182;2023-02-28T04:35:24;1.50;;;1.20;;
12005;SDS011;6062;47.294;12.182;2023-02-28T04:37:50;2.53;;;1.30;;
12005;SDS011;6062;47.294;12.182;2023-02-28T04:40:16;1.30;;;1.17;;
12005;SDS011;6062;47.294;12.182;2023-02-28T04:42:41;1.87;;;1.40;;
12005;SDS011;6062;47.294;12.182;2023-02-28T04:45:07;1.80;;;1.20;;
12005;SDS011;6062;47.294;12.182;2023-02-28T04:47:35;1.20;;;1.10;;
12005;SDS011;6062;47.294;12.182;2023-02-28T04:50:01;1.33;;;1.20;;
12005;SDS011;6062;47.294;12.182;2023-02-28T04:52:28;1.17;;;1.07;;
12005;SDS011;6062;47.294;12.182;2023-02-28T04:54:54;1.23;;;1.10;;
12005;SDS011;6062;47.294;12.182;2023-02-28T04:57:20;1.20;;;1.10;;
12005;SDS011;6062;47.294;12.182;2023-02-28T04:59:45;1.20;;;1.10;;
12005;SDS011;6062;47.294;12.182;2023-02-28T05:02:11;1.20;;;1.10;;
12005;SDS011;6062;47.294;12.182;2023-02-28T05:04:37;1.30;;;1.20;;
12005;SDS011;6062;47.294;12.182;2023-02-28T05:07:03;1.23;;;1.13;;
12005;SDS011;6062;47.294;12.182;2023-02-28T05:09:29;1.30;;;1.20;;
12005;SDS011;6062;47.294;12.182;2023-02-28T05:11:55;1.20;;;1.10;;
12005;SDS011;6062;47.294;12.182;2023-02-28T05:14:21;1.03;;;0.93;;
12005;SDS011;6062;47.294;12.182;2023-02-28T05:16:47;2.13;;;1.10;;
12005;SDS011;6062;47.294;12.182;2023-02-28T05:19:12;1.20;;;1.10;;
12005;SDS011;6062;47.294;12.182;2023-02-28T05:21:39;1.10;;;1.00;;
12005;SDS011;6062;47.294;12.182;2023-02-28T05:24:13;1.10;;;1.00;;
12005;SDS011;6062;47.294;12.182;2023-02-28T05:26:41;1.30;;;1.20;;
12005;SDS011;6062;47.294;12.182;2023-02-28T05:29:08;1.30;;;1.20;;
12005;SDS011;6062;47.294;12.182;2023-02-28T05:31:34;1.30;;;1.20;;
12005;SDS011;6062;47.294;12.182;2023-02-28T05:34:01;1.20;;;1.10;;
12005;SDS011;6062;47.294;12.182;2023-02-28T05:36:29;1.57;;;1.20;;
12005;SDS011;6062;47.294;12.182;2023-02-28T05:38:55;1.20;;;1.10;;
12005;SDS011;6062;47.294;12.182;2023-02-28T05:41:21;1.20;;;1.10;;
12005;SDS011;6062;47.294;12.182;2023-02-28T05:43:47;1.10;;;1.00;;
12005;SDS011;6062;47.294;12.182;2023-02-28T05:46:13;1.97;;;1.03;;
12005;SDS011;6062;47.294;12.182;2023-02-28T05:48:40;1.10;;;1.00;;
12005;SDS011;6062;47.294;12.182;2023-02-28T05:51:08;4.70;;;3.73;;
12005;SDS011;6062;47.294;12.182;2023-02-28T05:53:34;5.80;;;5.20;;
12005;SDS011;6062;47.294;12.182;2023-02-28T05:56:00;5.00;;;4.50;;
12005;SDS011;6062;47.294;12.182;2023-02-28T05:58:26;2.83;;;2.27;;
12005;SDS011;6062;47.294;12.182;2023-02-28T06:00:56;3.33;;;3.00;;
12005;SDS011;6062;47.294;12.182;2023-02-28T06:03:23;4.60;;;4.20;;
12005;SDS011;6062;47.294;12.182;2023-02-28T06:05:49;8.83;;;7.93;;
12005;SDS011;6062;47.294;12.182;2023-02-28T06:08:15;5.73;;;4.37;;
12005;SDS011;6062;47.294;12.182;2023-02-28T06:10:41;9.90;;;7.10;;
12005;SDS011;6062;47.294;12.182;2023-02-28T06:13:07;47.90;;;27.43;;
12005;SDS011;6062;47.294;12.182;2023-02-28T06:15:33;12.63;;;11.07;;
12005;SDS011;6062;47.294;12.182;2023-02-28T06:17:59;5.93;;;5.33;;
12005;SDS011;6062;47.294;12.182;2023-02-28T06:20:25;5.73;;;4.00;;
12005;SDS011;6062;47.294;12.182;2023-02-28T06:22:54;3.97;;;3.20;;
12005;SDS011;6062;47.294;12.182;2023-02-28T06:25:23;4.00;;;2.93;;
12005;SDS011;6062;47.294;12.182;2023-02-28T06:27:51;14.90;;;10.93;;
12005;SDS011;6062;47.294;12.182;2023-02-28T06:30:17;7.43;;;5.50;;
12005;SDS011;6062;47.294;12.182;2023-02-28T06:32:42;14.33;;;10.67;;
12005;SDS011;6062;47.294;12.182;2023-02-28T06:35:08;12.87;;;9.37;;
12005;SDS011;6062;47.294;12.182;2023-02-28T06:37:35;5.07;;;4.30;;
12005;SDS011;6062;47.294;12.182;2023-02-28T06:40:00;1.87;;;1.77;;
12005;SDS011;6062;47.294;12.182;2023-02-28T06:42:27;3.27;;;1.70;;
12005;SDS011;6062;47.294;12.182;2023-02-28T06:44:55;3.80;;;3.50;;
12005;SDS011;6062;47.294;12.182;2023-02-28T06:47:21;5.47;;;4.40;;
12005;SDS011;6062;47.294;12.182;2023-02-28T06:49:47;3.10;;;2.80;;
12005;SDS011;6062;47.294;12.182;2023-02-28T06:52:13;1.38;;;1.27;;
12005;SDS011;6062;47.294;12.182;2023-02-28T06:54:39;1.33;;;1.05;;
12005;SDS011;6062;47.294;12.182;2023-02-28T06:57:05;1.25;;;1.10;;
12005;SDS011;6062;47.294;12.182;2023-02-28T06:59:30;1.30;;;1.20;;
12005;SDS011;6062;47.294;12.182;2023-02-28T07:01:56;0.98;;;0.90;;
12005;SDS011;6062;47.294;12.182;2023-02-28T07:04:22;0.80;;;0.80;;
12005;SDS011;6062;47.294;12.182;2023-02-28T07:06:48;1.30;;;1.20;;
12005;SDS011;6062;47.294;12.182;2023-02-28T07:09:14;1.02;;;0.95;;
12005;SDS011;6062;47.294;12.182;2023-02-28T07:11:40;1.40;;;1.30;;
12005;SDS011;6062;47.294;12.182;2023-02-28T07:14:07;4.63;;;4.22;;
12005;SDS011;6062;47.294;12.182;2023-02-28T07:16:34;8.13;;;6.85;;
12005;SDS011;6062;47.294;12.182;2023-02-28T07:19:01;6.63;;;6.03;;
12005;SDS011;6062;47.294;12.182;2023-02-28T07:21:27;4.20;;;3.50;;
12005;SDS011;6062;47.294;12.182;2023-02-28T07:23:52;7.50;;;6.78;;
12005;SDS011;6062;47.294;12.182;2023-02-28T07:26:18;2.58;;;1.70;;
12005;SDS011;6062;47.294;12.182;2023-02-28T07:28:46;1.23;;;1.13;;
12005;SDS011;6062;47.294;12.182;2023-02-28T07:31:13;1.20;;;1.10;;
12005;SDS011;6062;47.294;12.182;2023-02-28T07:33:40;1.00;;;0.90;;
12005;SDS011;6062;47.294;12.182;2023-02-28T07:36:08;1.00;;;0.90;;
12005;SDS011;6062;47.294;12.182;2023-02-28T07:38:41;2.20;;;2.05;;
12005;SDS011;6062;47.294;12.182;2023-02-28T07:41:10;1.38;;;1.27;;
12005;SDS011;6062;47.294;12.182;2023-02-28T07:43:36;2.90;;;1.00;;
12005;SDS011;6062;47.294;12.182;2023-02-28T07:46:03;2.60;;;2.40;;
12005;SDS011;6062;47.294;12.182;2023-02-28T07:48:31;1.20;;;1.10;;
12005;SDS011;6062;47.294;12.182;2023-02-28T07:50:58;0.80;;;0.80;;
12005;SDS011;6062;47.294;12.182;2023-02-28T07:53:24;1.27;;;0.90;;
12005;SDS011;6062;47.294;12.182;2023-02-28T07:55:53;1.42;;;0.90;;
12005;SDS011;6062;47.294;12.182;2023-02-28T07:58:24;1.75;;;1.30;;
12005;SDS011;6062;47.294;12.182;2023-02-28T08:00:51;2.20;;;1.90;;
12005;SDS011;6062;47.294;12.182;2023-02-28T08:03:17;1.27;;;1.17;;
12005;SDS011;6062;47.294;12.182;2023-02-28T08:05:44;0.68;;;0.68;;
12005;SDS011;6062;47.294;12.182;2023-02-28T08:08:10;1.15;;;1.00;;
12005;SDS011;6062;47.294;12.182;2023-02-28T08:10:36;1.35;;;1.25;;
12005;SDS011;6062;47.294;12.182;2023-02-28T08:13:02;1.40;;;1.30;;
12005;SDS011;6062;47.294;12.182;2023-02-28T08:15:28;1.48;;;1.38;;
12005;SDS011;6062;47.294;12.182;2023-02-28T08:17:54;3.22;;;2.92;;
12005;SDS011;6062;47.294;12.182;2023-02-28T08:20:23;4.07;;;3.67;;
12005;SDS011;6062;47.294;12.182;2023-02-28T08:22:50;3.20;;;2.90;;
12005;SDS011;6062;47.294;12.182;2023-02-28T08:25:16;2.58;;;1.90;;
12005;SDS011;6062;47.294;12.182;2023-02-28T08:27:43;1.65;;;1.40;;
12005;SDS011;6062;47.294;12.182;2023-02-28T08:30:12;3.97;;;2.60;;
12005;SDS011;6062;47.294;12.182;2023-02-28T08:32:39;3.50;;;2.97;;
12005;SDS011;6062;47.294;12.182;2023-02-28T08:35:06;2.83;;;1.83;;
12005;SDS011;6062;47.294;12.182;2023-02-28T08:37:34;1.40;;;1.30;;
12005;SDS011;6062;47.294;12.182;2023-02-28T08:40:00;1.13;;;1.02;;
12005;SDS011;6062;47.294;12.182;2023-02-28T08:42:26;1.65;;;1.30;;
12005;SDS011;6062;47.294;12.182;2023-02-28T08:44:52;2.90;;;2.40;;
12005;SDS011;6062;47.294;12.182;2023-02-28T08:47:17;3.05;;;1.98;;
12005;SDS011;6062;47.294;12.182;2023-02-28T08:49:44;3.45;;;2.50;;
12005;SDS011;6062;47.294;12.182;2023-02-28T08:52:09;2.33;;;1.63;;
12005;SDS011;6062;47.294;12.182;2023-02-28T08:54:35;1.52;;;1.30;;
12005;SDS011;6062;47.294;12.182;2023-02-28T08:57:02;4.10;;;3.35;;
12005;SDS011;6062;47.294;12.182;2023-02-28T08:59:28;3.15;;;2.45;;
12005;SDS011;6062;47.294;12.182;2023-02-28T09:01:55;1.63;;;1.35;;
12005;SDS011;6062;47.294;12.182;2023-02-28T09:04:21;1.83;;;1.20;;
12005;SDS011;6062;47.294;12.182;2023-02-28T09:06:47;2.45;;;1.85;;
12005;SDS011;6062;47.294;12.182;2023-02-28T09:09:13;1.63;;;1.40;;
12005;SDS011;6062;47.294;12.182;2023-02-28T09:11:40;3.45;;;2.45;;
12005;SDS011;6062;47.294;12.182;2023-02-28T09:14:06;8.43;;;3.53;;
12005;SDS011;6062;47.294;12.182;2023-02-28T09:16:32;29.88;;;12.57;;
12005;SDS011;6062;47.294;12.182;2023-02-28T09:18:59;22.55;;;9.48;;
12005;SDS011;6062;47.294;12.182;2023-02-28T09:21:26;16.55;;;9.63;;
12005;SDS011;6062;47.294;12.182;2023-02-28T09:23:52;8.57;;;6.00;;
12005;SDS011;6062;47.294;12.182;2023-02-28T09:26:22;9.10;;;6.15;;
12005;SDS011;6062;47.294;12.182;2023-02-28T09:28:51;3.22;;;2.50;;
12005;SDS011;6062;47.294;12.182;2023-02-28T09:31:19;2.58;;;1.92;;
12005;SDS011;6062;47.294;12.182;2023-02-28T09:33:49;2.35;;;1.77;;
12005;SDS011;6062;47.294;12.182;2023-02-28T09:36:18;3.63;;;2.38;;
12005;SDS011;6062;47.294;12.182;2023-02-28T09:38:45;2.72;;;1.83;;
12005;SDS011;6062;47.294;12.182;2023-02-28T09:41:24;4.50;;;2.28;;
12005;SDS011;6062;47.294;12.182;2023-02-28T09:43:56;4.65;;;2.50;;
12005;SDS011;6062;47.294;12.182;2023-02-28T09:46:32;4.25;;;2.42;;
12005;SDS011;6062;47.294;12.182;2023-02-28T09:49:06;3.20;;;1.70;;
12005;SDS011;6062;47.294;12.182;2023-02-28T09:51:43;4.43;;;2.20;;
12005;SDS011;6062;47.294;12.182;2023-02-28T09:54:28;4.97;;;2.63;;
12005;SDS011;6062;47.294;12.182;2023-02-28T09:57:01;3.25;;;2.25;;
12005;SDS011;6062;47.294;12.182;2023-02-28T09:59:40;4.25;;;2.38;;
12005;SDS011;6062;47.294;12.182;2023-02-28T10:02:36;7.25;;;3.45;;
12005;SDS011;6062;47.294;12.182;2023-02-28T10:05:37;9.38;;;4.07;;
12005;SDS011;6062;47.294;12.182;2023-02-28T10:08:26;3.92;;;1.80;;
12005;SDS011;6062;47.294;12.182;2023-02-28T10:11:01;1.48;;;1.30;;
12005;SDS011;6062;47.294;12.182;2023-02-28T10:13:48;1.40;;;1.30;;
12005;SDS011;6062;47.294;12.182;2023-02-28T10:16:42;1.40;;;1.27;;
12005;SDS011;6062;47.294;12.182;2023-02-28T10:19:30;1.95;;;1.42;;
12005;SDS011;6062;47.294;12.182;2023-02-28T10:22:25;2.42;;;2.00;;
12005;SDS011;6062;47.294;12.182;2023-02-28T10:25:01;4.22;;;3.47;;
12005;SDS011;6062;47.294;12.182;2023-02-28T10:27:41;2.35;;;2.15;;
12005;SDS011;6062;47.294;12.182;2023-02-28T10:30:09;1.80;;;1.70;;
12005;SDS011;6062;47.294;12.182;2023-02-28T10:32:36;1.77;;;1.65;;
12005;SDS011;6062;47.294;12.182;2023-02-28T10:35:16;1.63;;;1.40;;
12005;SDS011;6062;47.294;12.182;2023-02-28T10:37:51;1.88;;;1.70;;
12005;SDS011;6062;47.294;12.182;2023-02-28T10:42:56;1.30;;;1.20;;
12005;SDS011;6062;47.294;12.182;2023-02-28T10:45:26;0.40;;;0.40;;
12005;SDS011;6062;47.294;12.182;2023-02-28T10:47:58;0.22;;;0.22;;
12005;SDS011;6062;47.294;12.182;2023-02-28T10:50:33;1.20;;;1.10;;
12005;SDS011;6062;47.294;12.182;2023-02-28T10:56:02;1.80;;;1.70;;
12005;SDS011;6062;47.294;12.182;2023-02-28T11:09:45;2.10;;;1.73;;
12005;SDS011;6062;47.294;12.182;2023-02-28T11:12:33;2.10;;;1.90;;
12005;SDS011;6062;47.294;12.182;2023-02-28T11:15:14;2.03;;;1.80;;
12005;SDS011;6062;47.294;12.182;2023-02-28T11:18:02;1.63;;;1.40;;
12005;SDS011;6062;47.294;12.182;2023-02-28T11:20:36;1.60;;;1.50;;
12005;SDS011;6062;47.294;12.182;2023-02-28T11:23:03;2.15;;;1.60;;
12005;SDS011;6062;47.294;12.182;2023-02-28T11:25:36;1.85;;;1.60;;
12005;SDS011;6062;47.294;12.182;2023-02-28T11:28:04;1.60;;;1.50;;
12005;SDS011;6062;47.294;12.182;2023-02-28T11:31:04;1.63;;;1.23;;
12005;SDS011;6062;47.294;12.182;2023-02-28T11:36:19;1.20;;;1.10;;
12005;SDS011;6062;47.294;12.182;2023-02-28T11:39:00;1.40;;;1.30;;
12005;SDS011;6062;47.294;12.182;2023-02-28T11:41:50;1.17;;;1.08;;
12005;SDS011;6062;47.294;12.182;2023-02-28T11:45:07;1.33;;;1.20;;
12005;SDS011;6062;47.294;12.182;2023-02-28T11:56:13;1.40;;;1.15;;
12005;SDS011;6062;47.294;12.182;2023-02-28T12:04:56;1.60;;;1.40;;
12005;SDS011;6062;47.294;12.182;2023-02-28T12:07:53;2.30;;;1.70;;
12005;SDS011;6062;47.294;12.182;2023-02-28T12:16:30;1.20;;;1.10;;
12005;SDS011;6062;47.294;12.182;2023-02-28T12:19:28;1.42;;;1.33;;
12005;SDS011;6062;47.294;12.182;2023-02-28T12:28:10;1.70;;;1.45;;
12005;SDS011;6062;47.294;12.182;2023-02-28T12:30:45;1.63;;;1.48;;
12005;SDS011;6062;47.294;12.182;2023-02-28T12:33:26;1.90;;;1.40;;
12005;SDS011;6062;47.294;12.182;2023-02-28T12:36:00;1.50;;;1.40;;
12005;SDS011;6062;47.294;12.182;2023-02-28T12:39:23;1.45;;;1.35;;
12005;SDS011;6062;47.294;12.182;2023-02-28T12:44:17;1.50;;;1.40;;
12005;SDS011;6062;47.294;12.182;2023-02-28T12:47:03;1.20;;;1.10;;
12005;SDS011;6062;47.294;12.182;2023-02-28T12:49:36;2.08;;;1.10;;
12005;SDS011;6062;47.294;12.182;2023-02-28T12:52:13;1.42;;;1.17;;
12005;SDS011;6062;47.294;12.182;2023-02-28T12:55:08;1.60;;;1.50;;
12005;SDS011;6062;47.294;12.182;2023-02-28T12:57:50;1.40;;;1.30;;
12005;SDS011;6062;47.294;12.182;2023-02-28T13:00:56;1.27;;;1.17;;
12005;SDS011;6062;47.294;12.182;2023-02-28T13:06:54;1.42;;;1.33;;
12005;SDS011;6062;47.294;12.182;2023-02-28T13:09:51;1.40;;;1.30;;
12005;SDS011;6062;47.294;12.182;2023-02-28T13:12:21;1.50;;;1.40;;
12005;SDS011;6062;47.294;12.182;2023-02-28T13:14:48;1.50;;;1.30;;
12005;SDS011;6062;47.294;12.182;2023-02-28T13:17:18;2.38;;;1.85;;
12005;SDS011;6062;47.294;12.182;2023-02-28T13:24:51;2.17;;;1.90;;
12005;SDS011;6062;47.294;12.182;2023-02-28T13:27:40;1.98;;;1.75;;
12005;SDS011;6062;47.294;12.182;2023-02-28T13:38:43;1.90;;;1.80;;
12005;SDS011;6062;47.294;12.182;2023-02-28T13:44:09;2.20;;;2.00;;
12005;SDS011;6062;47.294;12.182;2023-02-28T13:52:33;3.03;;;2.20;;
12005;SDS011;6062;47.294;12.182;2023-02-28T13:57:30;2.80;;;2.20;;
12005;SDS011;6062;47.294;12.182;2023-02-28T14:04:00;2.85;;;2.30;;
12005;SDS011;6062;47.294;12.182;2023-02-28T14:06:54;2.70;;;2.38;;
12005;SDS011;6062;47.294;12.182;2023-02-28T14:09:25;2.90;;;2.17;;
12005;SDS011;6062;47.294;12.182;2023-02-28T14:15:39;2.70;;;2.43;;
12005;SDS011;6062;47.294;12.182;2023-02-28T14:18:16;3.72;;;2.28;;
12005;SDS011;6062;47.294;12.182;2023-02-28T14:21:26;2.30;;;1.80;;
12005;SDS011;6062;47.294;12.182;2023-02-28T14:27:49;2.40;;;2.20;;
12005;SDS011;6062;47.294;12.182;2023-02-28T14:31:15;2.20;;;2.00;;
12005;SDS011;6062;47.294;12.182;2023-02-28T14:34:05;1.93;;;1.77;;
12005;SDS011;6062;47.294;12.182;2023-02-28T14:37:02;2.30;;;1.90;;
12005;SDS011;6062;47.294;12.182;2023-02-28T14:39:29;2.13;;;1.83;;
12005;SDS011;6062;47.294;12.182;2023-02-28T14:41:57;2.03;;;1.80;;
12005;SDS011;6062;47.294;12.182;2023-02-28T14:44:28;1.97;;;1.80;;
12005;SDS011;6062;47.294;12.182;2023-02-28T14:46:54;2.67;;;2.10;;
12005;SDS011;6062;47.294;12.182;2023-02-28T14:49:36;2.00;;;1.80;;
12005;SDS011;6062;47.294;12.182;2023-02-28T14:52:20;2.37;;;1.97;;
12005;SDS011;6062;47.294;12.182;2023-02-28T14:55:01;2.30;;;2.10;;
12005;SDS011;6062;47.294;12.182;2023-02-28T14:57:34;2.73;;;2.30;;
12005;SDS011;6062;47.294;12.182;2023-02-28T15:00:16;2.30;;;2.10;;
12005;SDS011;6062;47.294;12.182;2023-02-28T15:02:54;2.30;;;2.10;;
12005;SDS011;6062;47.294;12.182;2023-02-28T15:05:32;1.80;;;1.70;;
12005;SDS011;6062;47.294;12.182;2023-02-28T15:08:09;2.03;;;1.70;;
12005;SDS011;6062;47.294;12.182;2023-02-28T15:10:40;2.13;;;1.90;;
12005;SDS011;6062;47.294;12.182;2023-02-28T15:13:38;2.37;;;1.90;;
12005;SDS011;6062;47.294;12.182;2023-02-28T15:16:22;3.13;;;2.00;;
12005;SDS011;6062;47.294;12.182;2023-02-28T15:19:13;2.50;;;2.03;;
12005;SDS011;6062;47.294;12.182;2023-02-28T15:21:48;2.17;;;1.80;;
12005;SDS011;6062;47.294;12.182;2023-02-28T15:24:33;2.37;;;1.70;;
12005;SDS011;6062;47.294;12.182;2023-02-28T15:27:29;2.00;;;1.67;;
12005;SDS011;6062;47.294;12.182;2023-02-28T15:29:59;1.87;;;1.67;;
12005;SDS011;6062;47.294;12.182;2023-02-28T15:32:34;2.83;;;2.00;;
12005;SDS011;6062;47.294;12.182;2023-02-28T15:37:53;2.10;;;1.73;;
12005;SDS011;6062;47.294;12.182;2023-02-28T15:40:38;2.30;;;2.10;;
12005;SDS011;6062;47.294;12.182;2023-02-28T15:43:16;1.63;;;1.50;;
12005;SDS011;6062;47.294;12.182;2023-02-28T15:48:53;1.50;;;1.30;;
12005;SDS011;6062;47.294;12.182;2023-02-28T15:51:35;2.13;;;1.50;;
12005;SDS011;6062;47.294;12.182;2023-02-28T15:54:07;1.47;;;1.37;;
12005;SDS011;6062;47.294;12.182;2023-02-28T15:56:44;1.67;;;1.30;;
12005;SDS011;6062;47.294;12.182;2023-02-28T15:59:18;1.47;;;1.30;;
12005;SDS011;6062;47.294;12.182;2023-02-28T16:07:34;1.50;;;1.40;;
12005;SDS011;6062;47.294;12.182;2023-02-28T16:10:05;5.30;;;3.60;;
12005;SDS011;6062;47.294;12.182;2023-02-28T16:12:35;7.87;;;6.50;;
12005;SDS011;6062;47.294;12.182;2023-02-28T16:15:07;3.87;;;3.20;;
12005;SDS011;6062;47.294;12.182;2023-02-28T16:17:56;6.20;;;5.07;;
12005;SDS011;6062;47.294;12.182;2023-02-28T16:20:24;8.93;;;6.70;;
12005;SDS011;6062;47.294;12.182;2023-02-28T16:22:53;4.70;;;4.20;;
12005;SDS011;6062;47.294;12.182;2023-02-28T16:25:20;3.57;;;3.03;;
12005;SDS011;6062;47.294;12.182;2023-02-28T16:28:04;2.83;;;2.50;;
12005;SDS011;6062;47.294;12.182;2023-02-28T16:30:44;2.50;;;2.30;;
12005;SDS011;6062;47.294;12.182;2023-02-28T16:33:10;3.80;;;2.83;;
12005;SDS011;6062;47.294;12.182;2023-02-28T16:35:35;4.20;;;3.10;;
12005;SDS011;6062;47.294;12.182;2023-02-28T16:38:01;4.30;;;3.83;;
12005;SDS011;6062;47.294;12.182;2023-02-28T16:40:27;5.53;;;3.97;;
12005;SDS011;6062;47.294;12.182;2023-02-28T16:42:58;5.13;;;3.20;;
12005;SDS011;6062;47.294;12.182;2023-02-28T16:45:28;5.03;;;3.83;;
12005;SDS011;6062;47.294;12.182;2023-02-28T16:47:54;7.63;;;5.27;;
12005;SDS011;6062;47.294;12.182;2023-02-28T16:50:24;3.97;;;3.37;;
12005;SDS011;6062;47.294;12.182;2023-02-28T16:52:53;3.47;;;2.53;;
12005;SDS011;6062;47.294;12.182;2023-02-28T16:55:20;2.83;;;2.50;;
12005;SDS011;6062;47.294;12.182;2023-02-28T16:57:50;6.47;;;5.43;;
12005;SDS011;6062;47.294;12.182;2023-02-28T17:00:21;5.97;;;4.83;;
12005;SDS011;6062;47.294;12.182;2023-02-28T17:02:47;5.10;;;4.00;;
12005;SDS011;6062;47.294;12.182;2023-02-28T17:05:13;9.47;;;7.73;;
12005;SDS011;6062;47.294;12.182;2023-02-28T17:07:40;18.43;;;13.40;;
12005;SDS011;6062;47.294;12.182;2023-02-28T17:12:43;4.30;;;3.60;;
12005;SDS011;6062;47.294;12.182;2023-02-28T17:15:10;49.20;;;30.93;;
12005;SDS011;6062;47.294;12.182;2023-02-28T17:17:38;12.07;;;8.53;;
12005;SDS011;6062;47.294;12.182;2023-02-28T17:20:05;28.60;;;20.77;;
12005;SDS011;6062;47.294;12.182;2023-02-28T17:22:32;50.90;;;26.70;;
12005;SDS011;6062;47.294;12.182;2023-02-28T17:24:58;40.40;;;22.87;;
12005;SDS011;6062;47.294;12.182;2023-02-28T17:27:24;12.00;;;7.67;;